Time;durP1;ratioP1;P1;durP2;ratioP2;P2;SDS_P1;SDS_P2;PMS_P1;PMS_P2;Temp;Humidity;BMP_temperature;BMP_pressure;BME280_temperature;BME280_humidity;BME280_pressure;Samples;Min_cycle;Max_cycle;Signal;HPM_P1;HPM_P2
2023/05/23 00:02:08;;;;;;;0.20;0.20;;;15.00;99.90;;;;;;5113460;28;20073;-71
2023/05/23 00:04:35;;;;;;;0.95;0.90;;;14.90;99.90;;;;;;5113678;28;20076;-71
2023/05/23 00:07:02;;;;;;;4.00;3.78;;;14.90;99.90;;;;;;5113524;28;20092;-71
2023/05/23 00:09:28;;;;;;;1.65;1.55;;;14.90;99.90;;;;;;5113081;28;20030;-73
2023/05/23 00:11:54;;;;;;;1.13;1.13;;;14.80;99.90;;;;;;5113780;28;20035;-70
2023/05/23 00:14:20;;;;;;;7.90;2.53;;;14.70;99.90;;;;;;5113214;28;20035;-74
2023/05/23 00:16:48;;;;;;;0.47;0.47;;;14.70;99.90;;;;;;5095185;28;20024;-70
2023/05/23 00:19:14;;;;;;;10.00;2.90;;;14.90;99.90;;;;;;5113236;28;20107;-71
2023/05/23 00:21:42;;;;;;;4.78;1.95;;;15.00;99.90;;;;;;5113216;28;20024;-71
2023/05/23 00:24:09;;;;;;;8.55;3.08;;;15.00;99.90;;;;;;5113176;28;20057;-70
2023/05/23 00:26:35;;;;;;;4.72;1.48;;;15.00;99.90;;;;;;5113116;28;20035;-70
2023/05/23 00:29:01;;;;;;;0.88;0.88;;;14.90;99.90;;;;;;5113491;28;20460;-70
2023/05/23 00:31:27;;;;;;;1.75;1.05;;;15.00;99.90;;;;;;5112942;28;20032;-70
2023/05/23 00:33:53;;;;;;;0.60;0.50;;;15.00;99.90;;;;;;5094977;28;20494;-70
2023/05/23 00:36:18;;;;;;;1.52;0.80;;;14.90;99.90;;;;;;5112964;28;20076;-70
2023/05/23 00:38:48;;;;;;;3.00;2.72;;;15.00;99.90;;;;;;5112913;28;20028;-70
2023/05/23 00:41:14;;;;;;;2.90;1.38;;;14.90;99.90;;;;;;5113089;28;20106;-70
2023/05/23 00:43:40;;;;;;;1.30;1.20;;;14.90;99.90;;;;;;5113131;28;20027;-70
2023/05/23 00:46:07;;;;;;;3.45;1.17;;;14.80;99.90;;;;;;5095038;28;20031;-70
2023/05/23 00:48:33;;;;;;;12.65;6.65;;;14.80;99.90;;;;;;5113965;28;20023;-70
2023/05/23 00:50:59;;;;;;;9.88;6.10;;;14.90;99.90;;;;;;5117263;28;20127;-70
2023/05/23 00:53:26;;;;;;;6.88;2.03;;;14.60;99.90;;;;;;5116830;28;20464;-70
2023/05/23 00:55:51;;;;;;;3.20;1.63;;;14.50;99.90;;;;;;5117198;28;20020;-71
2023/05/23 00:58:18;;;;;;;19.58;6.88;;;14.40;99.90;;;;;;5098401;28;20476;-70
2023/05/23 01:00:44;;;;;;;8.25;3.42;;;14.30;99.90;;;;;;5117158;28;20087;-70
2023/05/23 01:03:16;;;;;;;5.13;2.65;;;14.30;99.90;;;;;;5098789;28;20506;-71
2023/05/23 01:05:43;;;;;;;1.77;1.52;;;14.30;99.90;;;;;;5098659;28;20027;-70
2023/05/23 01:08:09;;;;;;;1.45;1.35;;;14.20;99.90;;;;;;5116628;28;20490;-70
2023/05/23 01:10:35;;;;;;;3.38;1.27;;;14.30;99.90;;;;;;5098581;28;20036;-70
2023/05/23 01:13:16;;;;;;;1.35;0.68;;;14.40;99.90;;;;;;5116753;28;20030;-70
2023/05/23 01:15:46;;;;;;;6.18;3.50;;;14.50;99.90;;;;;;5116810;28;20019;-70
2023/05/23 01:18:16;;;;;;;3.35;2.35;;;14.40;99.90;;;;;;5116599;28;20036;-71
2023/05/23 01:20:53;;;;;;;2.05;1.80;;;14.40;99.90;;;;;;5116846;28;20031;-71
2023/05/23 01:23:51;;;;;;;6.75;2.47;;;14.30;99.90;;;;;;5116336;28;20016;-70
2023/05/23 01:26:47;;;;;;;1.23;1.02;;;14.40;99.90;;;;;;5098256;28;20047;-73
2023/05/23 01:29:22;;;;;;;14.23;2.63;;;14.60;99.90;;;;;;5098417;28;20059;-70
2023/05/23 01:31:51;;;;;;;0.20;0.20;;;14.60;99.90;;;;;;5116569;28;20031;-70
2023/05/23 01:34:18;;;;;;;0.47;0.47;;;14.60;99.90;;;;;;5116356;28;20054;-71
2023/05/23 01:36:44;;;;;;;6.88;3.10;;;14.60;99.90;;;;;;5096705;28;20384;-70
2023/05/23 01:39:11;;;;;;;2.55;2.40;;;14.60;99.90;;;;;;5116062;28;20020;-71
2023/05/23 01:41:37;;;;;;;1.75;1.65;;;14.50;99.90;;;;;;5115293;28;20495;-70
2023/05/23 01:44:04;;;;;;;2.05;1.75;;;14.60;99.90;;;;;;5115288;28;20020;-70
2023/05/23 01:46:32;;;;;;;0.52;0.52;;;14.70;99.90;;;;;;5115150;28;20547;-71
2023/05/23 01:48:58;;;;;;;0.15;0.15;;;14.60;99.90;;;;;;5096513;28;20019;-71
2023/05/23 01:51:25;;;;;;;1.05;1.05;;;14.60;99.90;;;;;;5096196;28;20032;-70
2023/05/23 01:53:52;;;;;;;4.75;4.38;;;14.60;99.90;;;;;;5096313;28;20375;-70
2023/05/23 01:56:20;;;;;;;0.22;0.22;;;14.50;99.90;;;;;;5114940;28;20474;-71
2023/05/23 01:58:46;;;;;;;3.03;1.35;;;14.50;99.90;;;;;;5096137;28;20059;-70
2023/05/23 02:01:13;;;;;;;2.28;1.60;;;14.60;99.90;;;;;;5096728;28;20019;-70
2023/05/23 02:03:38;;;;;;;10.40;3.20;;;14.60;99.90;;;;;;5096208;28;20084;-71
2023/05/23 02:06:04;;;;;;;2.35;2.15;;;14.50;99.90;;;;;;5096103;28;20027;-70
2023/05/23 02:08:30;;;;;;;13.20;5.28;;;14.30;99.90;;;;;;5096298;28;20059;-71
2023/05/23 02:10:56;;;;;;;3.63;2.10;;;14.30;99.90;;;;;;5096247;28;20040;-70
2023/05/23 02:13:22;;;;;;;5.10;3.33;;;14.20;99.90;;;;;;5096254;28;20024;-73
2023/05/23 02:15:48;;;;;;;2.53;2.33;;;14.20;99.90;;;;;;5096415;28;20069;-71
2023/05/23 02:18:15;;;;;;;1.90;1.60;;;14.20;99.90;;;;;;5082074;28;20472;-71
2023/05/23 02:20:42;;;;;;;7.03;4.50;;;14.40;99.90;;;;;;5114045;28;20072;-70
2023/05/23 02:23:09;;;;;;;5.72;0.90;;;14.20;99.90;;;;;;5096184;28;20246;-71
2023/05/23 02:25:36;;;;;;;0.10;0.10;;;14.50;99.90;;;;;;5096141;28;20024;-70
2023/05/23 02:28:05;;;;;;;1.70;1.45;;;14.50;99.90;;;;;;5095920;28;20020;-70
2023/05/23 02:30:31;;;;;;;0.95;0.95;;;14.60;99.90;;;;;;5114215;28;20043;-70
2023/05/23 02:32:57;;;;;;;1.45;1.20;;;14.60;99.90;;;;;;5114049;28;20023;-70
2023/05/23 02:35:23;;;;;;;3.53;2.55;;;14.70;99.90;;;;;;5095572;28;20528;-75
2023/05/23 02:37:49;;;;;;;1.00;1.00;;;14.60;99.90;;;;;;5096080;28;20032;-72
2023/05/23 02:40:15;;;;;;;0.10;0.10;;;14.60;99.90;;;;;;5056044;28;1121136;-71
2023/05/23 02:42:41;;;;;;;1.77;1.17;;;14.70;99.90;;;;;;5115264;28;20035;-70
2023/05/23 02:45:07;;;;;;;0.00;0.00;;;14.70;99.90;;;;;;5115003;28;20119;-70
2023/05/23 02:47:33;;;;;;;1.00;1.00;;;14.90;99.90;;;;;;5096654;28;20437;-70
2023/05/23 02:49:59;;;;;;;19.05;2.33;;;14.70;99.90;;;;;;5096255;28;20016;-70
2023/05/23 02:52:25;;;;;;;0.47;0.47;;;14.60;99.90;;;;;;5096912;28;20053;-70
2023/05/23 02:54:52;;;;;;;0.65;0.55;;;14.70;99.90;;;;;;5080040;28;20022;-71
2023/05/23 02:57:17;;;;;;;1.55;1.02;;;14.70;99.90;;;;;;5096663;28;20031;-72
2023/05/23 02:59:43;;;;;;;0.85;0.60;;;14.70;99.90;;;;;;5096329;28;20118;-71
2023/05/23 03:02:09;;;;;;;3.65;1.48;;;14.80;99.90;;;;;;5079696;28;20027;-70
2023/05/23 03:04:36;;;;;;;1.42;1.35;;;14.80;99.90;;;;;;5114521;28;20115;-71
2023/05/23 03:07:02;;;;;;;0.47;0.47;;;14.90;99.90;;;;;;5096314;28;20540;-70
2023/05/23 03:09:28;;;;;;;3.75;1.17;;;15.00;99.90;;;;;;5115077;28;20032;-70
2023/05/23 03:11:54;;;;;;;6.90;1.85;;;14.90;99.90;;;;;;5095347;28;20519;-70
2023/05/23 03:14:20;;;;;;;1.88;1.75;;;14.90;99.90;;;;;;5096297;28;20472;-70
2023/05/23 03:16:47;;;;;;;0.47;0.47;;;14.90;99.90;;;;;;5096165;28;20074;-70
2023/05/23 03:19:13;;;;;;;0.20;0.20;;;14.90;99.90;;;;;;5114229;28;20054;-71
2023/05/23 03:21:39;;;;;;;8.18;1.80;;;15.00;99.90;;;;;;5095969;28;20152;-70
2023/05/23 03:24:06;;;;;;;5.50;2.10;;;14.90;99.90;;;;;;5096106;28;20055;-70
2023/05/23 03:26:32;;;;;;;3.10;2.45;;;14.70;99.90;;;;;;5114332;28;20069;-70
2023/05/23 03:28:58;;;;;;;0.25;0.25;;;14.80;99.90;;;;;;5096154;28;20488;-70
2023/05/23 03:31:23;;;;;;;0.80;0.80;;;15.00;99.90;;;;;;5095455;28;20476;-69
2023/05/23 03:33:49;;;;;;;2.00;1.50;;;14.80;99.90;;;;;;5095576;28;20543;-70
2023/05/23 03:36:16;;;;;;;1.35;1.08;;;15.00;99.90;;;;;;5095796;28;20031;-70
2023/05/23 03:38:41;;;;;;;0.10;0.10;;;14.70;99.90;;;;;;5114087;28;20061;-71
2023/05/23 03:41:07;;;;;;;2.45;2.15;;;14.70;99.90;;;;;;5095327;28;20035;-70
2023/05/23 03:43:33;;;;;;;1.90;1.60;;;14.80;99.90;;;;;;5095564;28;20026;-70
2023/05/23 03:46:00;;;;;;;0.10;0.10;;;14.80;99.90;;;;;;5095617;28;20051;-70
2023/05/23 03:48:25;;;;;;;0.45;0.45;;;14.70;99.90;;;;;;5095524;28;20070;-70
2023/05/23 03:50:51;;;;;;;3.85;1.85;;;14.60;99.90;;;;;;5095562;28;20502;-70
2023/05/23 03:53:17;;;;;;;1.85;1.27;;;14.50;99.90;;;;;;5095529;28;20126;-70
2023/05/23 03:55:43;;;;;;;0.40;0.22;;;14.40;99.90;;;;;;5095207;28;20015;-73
2023/05/23 03:58:10;;;;;;;5.97;1.80;;;14.40;99.90;;;;;;5095622;28;20028;-70
2023/05/23 04:00:37;;;;;;;0.85;0.55;;;14.40;99.90;;;;;;5095170;28;20027;-70
2023/05/23 04:03:07;;;;;;;2.33;0.80;;;14.30;99.90;;;;;;5094879;28;20016;-72
2023/05/23 04:05:33;;;;;;;1.48;1.38;;;14.30;99.90;;;;;;5094941;28;20055;-70
2023/05/23 04:08:00;;;;;;;23.27;4.97;;;14.20;99.90;;;;;;5095065;28;20062;-70
2023/05/23 04:10:26;;;;;;;9.52;2.67;;;14.20;99.90;;;;;;5094845;28;20127;-70
2023/05/23 04:12:52;;;;;;;1.65;0.90;;;14.10;99.90;;;;;;5094537;28;20047;-70
2023/05/23 04:15:20;;;;;;;7.20;2.30;;;14.00;99.90;;;;;;5095023;28;20031;-70
2023/05/23 04:17:55;;;;;;;14.73;3.97;;;14.20;99.90;;;;;;5094690;28;20023;-70
2023/05/23 04:20:23;;;;;;;3.40;1.63;;;14.10;99.90;;;;;;5095237;28;20019;-69
2023/05/23 04:22:48;;;;;;;10.60;2.97;;;14.10;99.90;;;;;;5094766;28;20077;-70
2023/05/23 04:25:17;;;;;;;10.13;1.98;;;14.00;99.90;;;;;;5095034;28;20076;-70
2023/05/23 04:27:49;;;;;;;3.55;2.20;;;14.00;99.90;;;;;;5094642;28;20024;-72
2023/05/23 04:30:17;;;;;;;18.55;12.80;;;14.10;99.90;;;;;;5094809;28;20020;-70
2023/05/23 04:32:43;;;;;;;0.55;0.55;;;14.10;99.90;;;;;;5094238;28;20024;-72
2023/05/23 04:35:09;;;;;;;3.10;2.83;;;14.00;99.90;;;;;;5095201;28;20024;-74
2023/05/23 04:37:39;;;;;;;3.53;1.55;;;14.10;99.90;;;;;;5094841;28;20589;-70
2023/05/23 04:40:07;;;;;;;0.32;0.32;;;14.10;99.90;;;;;;5094800;28;20020;-70
2023/05/23 04:42:52;;;;;;;0.20;0.20;;;14.30;99.90;;;;;;5113228;28;20165;-70
2023/05/23 04:45:28;;;;;;;1.27;1.13;;;14.60;99.90;;;;;;5094606;28;20016;-69
2023/05/23 04:47:59;;;;;;;3.83;1.90;;;14.20;99.90;;;;;;5094768;28;20039;-70
2023/05/23 04:50:34;;;;;;;0.15;0.15;;;14.40;99.90;;;;;;5094611;28;20043;-70
2023/05/23 04:53:02;;;;;;;0.22;0.22;;;14.40;99.90;;;;;;5094849;28;20122;-70
2023/05/23 04:55:28;;;;;;;16.35;2.00;;;14.50;99.90;;;;;;5094782;28;20027;-71
2023/05/23 04:57:54;;;;;;;0.10;0.10;;;14.30;99.90;;;;;;5094611;28;20033;-70
2023/05/23 05:00:19;;;;;;;0.63;0.63;;;14.20;99.90;;;;;;5094275;28;20115;-70
2023/05/23 05:02:45;;;;;;;4.32;1.38;;;14.20;99.90;;;;;;5094646;28;20114;-71
2023/05/23 05:05:11;;;;;;;2.92;0.68;;;14.20;99.90;;;;;;5094766;28;20025;-71
2023/05/23 05:07:38;;;;;;;5.50;3.20;;;14.30;99.90;;;;;;5094460;28;20019;-72
2023/05/23 05:10:05;;;;;;;5.78;4.35;;;14.20;99.90;;;;;;5094621;28;20028;-70
2023/05/23 05:12:33;;;;;;;2.85;1.73;;;14.00;99.90;;;;;;5094359;28;20034;-71
2023/05/23 05:14:59;;;;;;;1.80;1.65;;;13.90;99.90;;;;;;5094451;28;20142;-71
2023/05/23 05:17:26;;;;;;;0.30;0.30;;;13.80;99.90;;;;;;5094640;28;20068;-70
2023/05/23 05:20:07;;;;;;;6.22;0.90;;;13.90;99.90;;;;;;5079655;28;20110;-70
2023/05/23 05:22:35;;;;;;;0.47;0.22;;;13.90;99.90;;;;;;5094468;28;20028;-70
2023/05/23 05:25:02;;;;;;;0.75;0.75;;;13.90;99.90;;;;;;5094689;28;20376;-71
2023/05/23 05:27:28;;;;;;;0.20;0.20;;;14.10;99.90;;;;;;5094511;28;20373;-73
2023/05/23 05:30:03;;;;;;;0.98;0.63;;;14.20;99.90;;;;;;5094343;28;20107;-74
2023/05/23 05:32:32;;;;;;;1.08;0.98;;;14.10;99.90;;;;;;5094341;28;20364;-71
2023/05/23 05:35:02;;;;;;;1.80;1.55;;;14.20;99.90;;;;;;5095870;28;20459;-73
2023/05/23 05:37:29;;;;;;;5.47;1.45;;;14.20;99.90;;;;;;5098281;28;20445;-72
2023/05/23 05:39:55;;;;;;;89.80;7.10;;;14.20;99.90;;;;;;5115992;28;20483;-74
2023/05/23 05:42:22;;;;;;;4.38;1.67;;;13.90;99.90;;;;;;5098187;28;20036;-74
2023/05/23 05:44:48;;;;;;;0.57;0.52;;;13.80;99.90;;;;;;5097472;28;20031;-72
2023/05/23 05:47:15;;;;;;;0.28;0.28;;;13.80;99.90;;;;;;5097798;28;20023;-72
2023/05/23 05:49:41;;;;;;;0.60;0.60;;;14.10;99.90;;;;;;5098035;28;20035;-73
2023/05/23 05:52:07;;;;;;;10.48;1.27;;;14.00;99.90;;;;;;5097649;28;20158;-71
2023/05/23 05:54:33;;;;;;;1.30;1.05;;;14.20;99.90;;;;;;5097932;28;20463;-70
2023/05/23 05:56:59;;;;;;;0.10;0.10;;;14.00;99.90;;;;;;5097481;28;20032;-73
2023/05/23 05:59:26;;;;;;;4.22;0.93;;;14.10;99.90;;;;;;5097196;28;20012;-74
2023/05/23 06:01:53;;;;;;;0.90;0.80;;;14.00;99.90;;;;;;5097737;28;20046;-71
2023/05/23 06:04:19;;;;;;;2.38;1.02;;;14.00;99.90;;;;;;5097886;28;20024;-71
2023/05/23 06:06:45;;;;;;;4.00;2.28;;;14.10;99.90;;;;;;5097810;28;20076;-71
2023/05/23 06:09:11;;;;;;;1.02;0.93;;;14.10;99.90;;;;;;5097276;28;20024;-70
2023/05/23 06:11:40;;;;;;;0.10;0.10;;;14.20;99.90;;;;;;5116094;28;20129;-70
2023/05/23 06:14:07;;;;;;;0.32;0.32;;;14.40;99.90;;;;;;5080084;28;20027;-70
2023/05/23 06:16:35;;;;;;;0.10;0.10;;;14.80;99.90;;;;;;5097358;28;20039;-70
2023/05/23 06:19:02;;;;;;;1.85;1.38;;;15.00;99.90;;;;;;5097108;28;20027;-75
2023/05/23 06:21:29;;;;;;;5.00;1.42;;;15.10;99.90;;;;;;5097343;28;20023;-74
2023/05/23 06:23:56;;;;;;;0.25;0.25;;;14.80;99.90;;;;;;5097156;28;20153;-74
2023/05/23 06:26:21;;;;;;;3.60;1.70;;;15.00;99.90;;;;;;5115206;28;20098;-75
2023/05/23 06:28:47;;;;;;;3.30;1.67;;;14.90;99.90;;;;;;5115324;28;20024;-74
2023/05/23 06:31:13;;;;;;;2.72;1.75;;;14.80;99.90;;;;;;5115048;28;20540;-74
2023/05/23 06:33:38;;;;;;;0.55;0.55;;;14.50;99.90;;;;;;5097110;28;20027;-73
2023/05/23 06:36:04;;;;;;;1.27;0.35;;;14.60;99.90;;;;;;5115157;28;20027;-74
2023/05/23 06:38:33;;;;;;;1.67;0.68;;;14.50;99.90;;;;;;5115417;28;20491;-72
2023/05/23 06:41:00;;;;;;;8.32;1.70;;;14.70;99.90;;;;;;5096470;28;20035;-74
2023/05/23 06:43:27;;;;;;;2.47;1.75;;;14.50;99.90;;;;;;5083074;28;20035;-74
2023/05/23 06:46:00;;;;;;;9.70;3.10;;;14.40;99.90;;;;;;5095575;28;20456;-74
2023/05/23 06:48:27;;;;;;;0.55;0.52;;;14.40;99.90;;;;;;5114905;28;20019;-74
2023/05/23 06:50:53;;;;;;;0.15;0.15;;;14.40;99.90;;;;;;5096697;28;20031;-73
2023/05/23 06:53:20;;;;;;;6.05;2.40;;;14.60;99.90;;;;;;5080167;28;20032;-74
2023/05/23 06:55:48;;;;;;;7.78;1.48;;;14.70;99.90;;;;;;5096108;28;20023;-72
2023/05/23 06:58:17;;;;;;;0.68;0.68;;;14.80;99.90;;;;;;5096554;28;20020;-73
2023/05/23 07:00:42;;;;;;;3.53;2.13;;;15.00;99.90;;;;;;5096316;28;20429;-72
2023/05/23 07:03:17;;;;;;;2.15;1.95;;;15.10;99.90;;;;;;5096540;28;20081;-74
2023/05/23 07:05:43;;;;;;;1.02;1.02;;;15.10;99.90;;;;;;5096331;28;20024;-75
2023/05/23 07:08:10;;;;;;;0.68;0.68;;;15.20;99.90;;;;;;5096352;28;20384;-73
2023/05/23 07:10:37;;;;;;;4.00;1.02;;;14.80;99.90;;;;;;5095834;28;20028;-74
2023/05/23 07:13:15;;;;;;;0.55;0.55;;;14.70;99.90;;;;;;5096412;28;20122;-73
2023/05/23 07:15:41;;;;;;;9.52;1.65;;;14.90;99.90;;;;;;5096992;28;20119;-72
2023/05/23 07:18:12;;;;;;;0.90;0.88;;;15.30;99.90;;;;;;5097977;28;20441;-69
2023/05/23 07:20:38;;;;;;;2.83;1.33;;;15.10;99.90;;;;;;5097920;28;20556;-70
2023/05/23 07:23:11;;;;;;;1.55;1.05;;;15.30;99.90;;;;;;5097530;28;20446;-70
2023/05/23 07:25:41;;;;;;;1.17;0.70;;;15.00;99.90;;;;;;5096594;28;20027;-70
2023/05/23 07:28:10;;;;;;;0.80;0.80;;;14.80;99.90;;;;;;5097308;28;20027;-71
2023/05/23 07:30:36;;;;;;;1.48;0.90;;;14.70;99.90;;;;;;5097466;28;20077;-74
2023/05/23 07:33:02;;;;;;;5.30;2.40;;;14.80;99.90;;;;;;5097008;28;20023;-73
2023/05/23 07:35:28;;;;;;;0.77;0.77;;;15.10;99.90;;;;;;5097311;28;20467;-69
2023/05/23 07:37:54;;;;;;;5.05;3.70;;;15.10;99.90;;;;;;5097031;28;20085;-74
2023/05/23 07:40:21;;;;;;;6.07;2.05;;;14.70;99.90;;;;;;5096386;28;20450;-71
2023/05/23 07:42:47;;;;;;;17.83;2.63;;;14.50;99.90;;;;;;5096361;28;20070;-74
2023/05/23 07:45:13;;;;;;;1.85;1.55;;;14.70;99.90;;;;;;5095815;28;20051;-72
2023/05/23 07:47:41;;;;;;;0.50;0.50;;;14.70;99.90;;;;;;5095922;28;20024;-74
2023/05/23 07:50:08;;;;;;;0.10;0.10;;;14.70;99.90;;;;;;5095813;28;20031;-72
2023/05/23 07:52:34;;;;;;;2.50;1.45;;;14.60;99.90;;;;;;5095863;28;20024;-72
2023/05/23 07:55:03;;;;;;;0.40;0.40;;;14.60;99.90;;;;;;5095513;28;20020;-70
2023/05/23 07:57:30;;;;;;;0.13;0.13;;;14.60;99.90;;;;;;5098942;28;20031;-71
2023/05/23 07:59:56;;;;;;;0.90;0.90;;;14.80;99.90;;;;;;5095295;28;20020;-70
2023/05/23 08:02:23;;;;;;;0.15;0.15;;;15.00;99.90;;;;;;5095428;28;20039;-70
2023/05/23 08:04:50;;;;;;;4.88;1.90;;;15.10;99.90;;;;;;5078963;28;20023;-69
2023/05/23 08:07:17;;;;;;;0.32;0.32;;;14.90;99.90;;;;;;5095228;28;20031;-70
2023/05/23 08:09:50;;;;;;;2.92;1.80;;;14.70;99.90;;;;;;5094726;28;20149;-69
2023/05/23 08:12:18;;;;;;;0.63;0.63;;;14.80;99.90;;;;;;5094811;28;20421;-74
2023/05/23 08:14:45;;;;;;;0.30;0.30;;;14.60;99.90;;;;;;5095306;28;20027;-72
2023/05/23 08:17:22;;;;;;;2.17;0.47;;;14.60;99.90;;;;;;5094958;28;20391;-75
2023/05/23 08:19:48;;;;;;;0.45;0.40;;;14.60;99.90;;;;;;5095153;28;20012;-71
2023/05/23 08:22:14;;;;;;;0.55;0.52;;;14.60;99.90;;;;;;5095049;28;20039;-72
2023/05/23 08:24:40;;;;;;;0.05;0.05;;;14.80;99.90;;;;;;5094778;28;20110;-72
2023/05/23 08:27:06;;;;;;;1.38;0.93;;;15.10;99.90;;;;;;5113339;28;20036;-70
2023/05/23 08:29:34;;;;;;;0.85;0.45;;;15.10;99.90;;;;;;5095002;28;20019;-70
2023/05/23 08:32:00;;;;;;;0.30;0.22;;;15.20;99.90;;;;;;5095002;28;20031;-70
2023/05/23 08:34:27;;;;;;;0.00;0.00;;;15.40;99.90;;;;;;5094946;28;20027;-70
2023/05/23 08:36:53;;;;;;;0.73;0.73;;;15.60;99.90;;;;;;5113377;28;20020;-75
2023/05/23 08:39:20;;;;;;;0.88;0.68;;;15.30;99.90;;;;;;5095021;28;20082;-72
2023/05/23 08:41:55;;;;;;;0.45;0.45;;;15.40;99.90;;;;;;5094791;28;20023;-71
2023/05/23 08:44:21;;;;;;;0.25;0.25;;;15.50;99.90;;;;;;5094866;28;20373;-70
2023/05/23 08:46:52;;;;;;;5.32;0.68;;;15.60;99.90;;;;;;5094404;28;20023;-74
2023/05/23 08:49:41;;;;;;;0.82;0.82;;;15.70;99.90;;;;;;5094943;28;20053;-71
2023/05/23 08:52:11;;;;;;;0.68;0.68;;;15.90;99.90;;;;;;5094309;28;20114;-69
2023/05/23 08:54:39;;;;;;;0.30;0.20;;;15.90;99.90;;;;;;5094979;28;20384;-75
2023/05/23 08:57:06;;;;;;;5.00;3.28;;;16.10;99.90;;;;;;5094554;28;20031;-70
2023/05/23 08:59:38;;;;;;;0.17;0.17;;;16.00;99.90;;;;;;5094767;28;20027;-73
2023/05/23 09:02:09;;;;;;;2.45;0.73;;;15.90;99.90;;;;;;5094893;28;20035;-69
2023/05/23 09:04:35;;;;;;;0.20;0.20;;;15.80;99.90;;;;;;5094866;28;20096;-74
2023/05/23 09:07:06;;;;;;;1.15;0.95;;;15.90;99.90;;;;;;5094249;28;20015;-74
2023/05/23 09:09:33;;;;;;;0.80;0.63;;;16.00;99.90;;;;;;5113929;28;20450;-75
2023/05/23 09:12:02;;;;;;;7.30;0.25;;;15.80;99.90;;;;;;5098566;28;20032;-70
2023/05/23 09:14:30;;;;;;;0.98;0.70;;;16.00;99.90;;;;;;5098529;28;20091;-70
2023/05/23 09:17:02;;;;;;;0.10;0.10;;;16.80;99.90;;;;;;5098650;28;20031;-70
2023/05/23 09:19:28;;;;;;;0.00;0.00;;;17.40;99.90;;;;;;5098226;28;20027;-70
2023/05/23 09:22:01;;;;;;;0.08;0.08;;;17.80;99.90;;;;;;5098152;28;20030;-70
2023/05/23 09:24:35;;;;;;;0.28;0.28;;;18.10;99.90;;;;;;5098331;28;20032;-69
2023/05/23 09:27:05;;;;;;;1.50;0.80;;;17.70;99.90;;;;;;5098431;28;20023;-69
2023/05/23 09:29:31;;;;;;;0.00;0.00;;;16.90;99.90;;;;;;5098038;28;20055;-70
2023/05/23 09:32:10;;;;;;;0.50;0.50;;;16.60;99.90;;;;;;5098276;28;20135;-70
2023/05/23 09:34:57;;;;;;;2.50;1.27;;;17.00;99.90;;;;;;5097943;28;20102;-70
2023/05/23 09:37:38;;;;;;;1.35;1.02;;;16.80;99.90;;;;;;5098270;28;20039;-70
2023/05/23 09:40:14;;;;;;;5.15;1.42;;;16.70;99.90;;;;;;5097823;28;20455;-69
2023/05/23 09:42:47;;;;;;;0.10;0.10;;;16.20;99.90;;;;;;5098048;28;20487;-70
2023/05/23 09:45:13;;;;;;;3.95;0.70;;;16.30;99.90;;;;;;5116251;28;20027;-70
2023/05/23 09:47:49;;;;;;;0.28;0.28;;;16.40;99.90;;;;;;5097916;28;20027;-70
2023/05/23 09:50:15;;;;;;;2.75;0.80;;;16.50;99.90;;;;;;5097345;28;20438;-69
2023/05/23 09:52:40;;;;;;;2.75;1.17;;;17.10;99.90;;;;;;5097826;28;20027;-70
2023/05/23 09:55:07;;;;;;;0.00;0.00;;;17.50;99.90;;;;;;5115858;28;20046;-70
2023/05/23 09:57:36;;;;;;;1.08;0.30;;;17.70;99.90;;;;;;5116031;28;20032;-70
2023/05/23 10:00:09;;;;;;;0.13;0.13;;;17.90;99.90;;;;;;5116041;28;20020;-70
2023/05/23 10:02:43;;;;;;;5.47;0.45;;;18.00;99.90;;;;;;5116157;28;20031;-69
2023/05/23 10:05:19;;;;;;;8.25;0.38;;;17.90;99.90;;;;;;5115479;28;20023;-70
2023/05/23 10:07:45;;;;;;;6.25;5.78;;;18.30;99.90;;;;;;5115866;28;20057;-70
2023/05/23 10:10:12;;;;;;;0.75;0.60;;;18.40;99.90;;;;;;5097537;28;20035;-70
2023/05/23 10:12:47;;;;;;;0.85;0.43;;;18.60;99.90;;;;;;5115785;28;20421;-71
2023/05/23 10:15:15;;;;;;;0.00;0.00;;;18.80;99.90;;;;;;5097639;28;20077;-70
2023/05/23 10:18:01;;;;;;;2.08;1.55;;;19.50;99.90;;;;;;5115453;28;20072;-70
2023/05/23 10:20:32;;;;;;;0.00;0.00;;;19.70;99.80;;;;;;5115212;28;20031;-70
2023/05/23 10:23:00;;;;;;;2.35;0.70;;;19.30;98.70;;;;;;5115463;28;20506;-70
2023/05/23 10:25:27;;;;;;;0.10;0.10;;;18.80;98.50;;;;;;5115463;28;20051;-70
2023/05/23 10:28:00;;;;;;;2.05;1.00;;;18.30;99.30;;;;;;5115261;28;20023;-70
2023/05/23 10:30:27;;;;;;;0.05;0.05;;;19.00;99.40;;;;;;5115308;28;20032;-69
2023/05/23 10:32:55;;;;;;;0.50;0.50;;;19.60;98.70;;;;;;5115175;28;20024;-69
2023/05/23 10:35:41;;;;;;;0.85;0.85;;;19.30;97.80;;;;;;5115306;28;20034;-72
2023/05/23 10:38:48;;;;;;;1.65;0.80;;;19.40;97.60;;;;;;5115362;28;20038;-69
2023/05/23 10:41:23;;;;;;;0.00;0.00;;;18.60;99.00;;;;;;5114839;28;20473;-69
2023/05/23 10:44:07;;;;;;;0.75;0.50;;;18.70;99.60;;;;;;5115038;28;20111;-70
2023/05/23 10:46:53;;;;;;;6.22;1.17;;;19.20;99.20;;;;;;5096790;28;20392;-69
2023/05/23 10:49:20;;;;;;;1.40;1.10;;;19.10;99.00;;;;;;5114838;28;20037;-70
2023/05/23 10:51:52;;;;;;;0.40;0.13;;;19.20;98.40;;;;;;5114667;28;20049;-70
2023/05/23 10:54:19;;;;;;;10.18;2.63;;;19.60;97.90;;;;;;5114968;28;20023;-70
2023/05/23 10:56:45;;;;;;;0.20;0.05;;;19.20;98.00;;;;;;5114790;28;20085;-70
2023/05/23 10:59:21;;;;;;;1.05;0.95;;;19.30;98.80;;;;;;5114906;28;20403;-70
2023/05/23 11:01:51;;;;;;;1.83;0.47;;;20.10;97.30;;;;;;5114710;28;20093;-70
2023/05/23 11:04:25;;;;;;;2.33;1.38;;;20.10;96.80;;;;;;5114461;28;20024;-70
2023/05/23 11:06:54;;;;;;;0.00;0.00;;;19.70;97.00;;;;;;5114514;28;20020;-70
2023/05/23 11:09:20;;;;;;;3.88;2.08;;;19.40;97.70;;;;;;5114570;28;20073;-70
2023/05/23 11:12:04;;;;;;;13.48;1.33;;;18.80;97.30;;;;;;5114588;28;20036;-70
2023/05/23 11:14:33;;;;;;;0.08;0.08;;;18.30;98.60;;;;;;5114633;28;20035;-72
2023/05/23 11:17:13;;;;;;;0.00;0.00;;;18.40;99.10;;;;;;5114142;28;20032;-70
2023/05/23 11:19:41;;;;;;;1.02;0.93;;;19.00;98.20;;;;;;5114652;28;20020;-70
2023/05/23 11:22:08;;;;;;;6.10;2.05;;;19.70;97.00;;;;;;5114405;28;20031;-70
2023/05/23 11:24:50;;;;;;;0.20;0.20;;;19.60;96.90;;;;;;5114808;28;20016;-70
2023/05/23 11:27:36;;;;;;;6.78;1.33;;;19.60;97.70;;;;;;5114111;28;20028;-69
2023/05/23 11:30:03;;;;;;;1.65;0.38;;;19.90;97.30;;;;;;5114310;28;20477;-70
2023/05/23 11:32:30;;;;;;;7.38;1.55;;;19.70;96.70;;;;;;5113243;28;20395;-71
2023/05/23 11:35:03;;;;;;;2.45;1.50;;;19.20;97.10;;;;;;5114239;28;20081;-70
2023/05/23 11:37:30;;;;;;;1.90;1.73;;;19.10;97.10;;;;;;5114016;28;20543;-70
2023/05/23 11:39:57;;;;;;;0.10;0.10;;;19.40;97.40;;;;;;5113999;28;20023;-75
2023/05/23 11:42:23;;;;;;;0.00;0.00;;;20.40;96.30;;;;;;5114045;28;20027;-74
2023/05/23 11:44:52;;;;;;;3.75;0.55;;;20.20;94.70;;;;;;5095829;28;20357;-72
2023/05/23 11:47:19;;;;;;;0.38;0.38;;;20.80;95.50;;;;;;5113415;28;20426;-70
2023/05/23 11:49:46;;;;;;;3.00;1.23;;;20.90;95.30;;;;;;5113609;28;20475;-73
2023/05/23 11:52:12;;;;;;;9.98;1.10;;;20.70;95.00;;;;;;5113434;28;20082;-70
2023/05/23 11:54:42;;;;;;;0.47;0.47;;;20.10;95.60;;;;;;5113988;28;20110;-70
2023/05/23 11:57:09;;;;;;;0.00;0.00;;;19.70;96.60;;;;;;5113571;28;20051;-74
2023/05/23 11:59:35;;;;;;;1.80;1.02;;;19.80;96.60;;;;;;5095617;28;20110;-70
2023/05/23 12:02:02;;;;;;;2.60;0.82;;;20.00;96.60;;;;;;5113023;28;20034;-70
2023/05/23 12:04:28;;;;;;;15.07;1.95;;;19.90;96.20;;;;;;5113700;28;20555;-69
2023/05/23 12:06:54;;;;;;;0.43;0.30;;;19.70;96.20;;;;;;5113498;28;20099;-71
2023/05/23 12:09:20;;;;;;;2.40;0.57;;;19.90;96.40;;;;;;5095294;28;20139;-70
2023/05/23 12:11:47;;;;;;;2.20;1.20;;;20.30;96.30;;;;;;5113894;28;20023;-71
2023/05/23 12:14:15;;;;;;;1.42;0.52;;;20.20;95.70;;;;;;5113221;28;20380;-70
2023/05/23 12:16:44;;;;;;;3.03;1.70;;;20.50;95.70;;;;;;5113228;28;20084;-73
2023/05/23 12:19:10;;;;;;;2.42;1.00;;;20.50;95.30;;;;;;5113240;28;20058;-70
2023/05/23 12:21:44;;;;;;;4.07;0.63;;;20.40;95.40;;;;;;5113455;28;20019;-72
2023/05/23 12:24:16;;;;;;;0.43;0.13;;;20.40;95.20;;;;;;5113348;28;20460;-70
2023/05/23 12:26:53;;;;;;;12.70;1.45;;;20.40;96.10;;;;;;5113244;28;20150;-70
2023/05/23 12:29:41;;;;;;;6.43;0.93;;;20.60;95.00;;;;;;5112873;28;20031;-69
2023/05/23 12:32:07;;;;;;;0.43;0.43;;;20.50;94.90;;;;;;5112809;28;20092;-70
2023/05/23 12:34:32;;;;;;;0.10;0.10;;;21.10;95.60;;;;;;5095343;28;20012;-70
2023/05/23 12:37:02;;;;;;;0.82;0.40;;;21.90;94.50;;;;;;5113012;28;20019;-70
2023/05/23 12:39:29;;;;;;;2.10;1.25;;;21.40;93.80;;;;;;5113110;28;20028;-69
2023/05/23 12:42:05;;;;;;;1.55;1.35;;;21.00;94.50;;;;;;5112848;28;20027;-70
2023/05/23 12:44:31;;;;;;;0.30;0.10;;;21.00;94.90;;;;;;5097785;28;20039;-70
2023/05/23 12:46:57;;;;;;;6.80;2.60;;;21.50;94.40;;;;;;5117091;28;20015;-70
2023/05/23 12:49:23;;;;;;;1.75;0.43;;;20.30;94.90;;;;;;5099048;28;20106;-70
2023/05/23 12:51:49;;;;;;;0.03;0.03;;;20.60;94.70;;;;;;5098860;28;20192;-71
2023/05/23 12:54:16;;;;;;;0.00;0.00;;;21.00;95.30;;;;;;5117103;28;20023;-70